Time;durP1;ratioP1;P1;durP2;ratioP2;P2;SDS_P1;SDS_P2;PMS_P1;PMS_P2;Temp;Humidity;BMP_temperature;BMP_pressure;BME280_temperature;BME280_humidity;BME280_pressure;Samples;Min_cycle;Max_cycle;Signal;HPM_P1;HPM_P2
2022/05/24 00:02:21;;;;;;;9.68;3.63;;;;;;;13.87;60.18;98410.81;8197074;28;20059;-73
2022/05/24 00:06:25;;;;;;;7.50;3.50;;;;;;;13.89;60.24;98413.97;8173220;29;20130;-72
2022/05/24 00:10:30;;;;;;;9.15;3.75;;;;;;;13.89;60.29;98408.56;8191502;28;20063;-71
2022/05/24 00:18:52;;;;;;;9.70;3.67;;;;;;;13.83;60.51;98409.94;8172960;28;20051;-72
2022/05/24 00:22:52;;;;;;;5.57;3.47;;;;;;;13.80;60.76;98402.47;8173163;29;20095;-72
2022/05/24 00:26:54;;;;;;;6.22;3.38;;;;;;;13.82;60.53;98386.63;8173794;28;20127;-72
2022/05/24 00:30:55;;;;;;;7.30;3.55;;;;;;;13.82;60.38;98386.63;8174917;28;20129;-73
2022/05/24 00:34:56;;;;;;;11.75;3.72;;;;;;;13.82;60.41;98375.78;8176251;28;20044;-72
2022/05/24 00:38:57;;;;;;;8.55;3.67;;;;;;;13.75;60.54;98364.72;8177622;29;20134;-72
2022/05/24 00:43:01;;;;;;;12.90;3.50;;;;;;;13.72;60.73;98370.06;8180044;28;20060;-72
2022/05/24 00:47:30;;;;;;;9.93;3.88;;;;;;;13.68;60.91;98348.28;8198243;28;20098;-72
2022/05/24 00:51:42;;;;;;;10.02;3.28;;;;;;;13.65;61.07;98359.81;8173450;29;20047;-72
2022/05/24 00:55:49;;;;;;;8.90;3.75;;;;;;;13.55;61.26;98354.88;8183790;28;20078;-72
2022/05/24 01:00:01;;;;;;;4.90;3.60;;;;;;;13.48;61.10;98344.63;8182147;29;20043;-72
2022/05/24 01:04:03;;;;;;;6.05;4.13;;;;;;;13.39;61.73;98335.06;8183529;28;20047;-72
2022/05/24 01:08:05;;;;;;;9.50;3.97;;;;;;;13.35;61.94;98317.91;8178775;28;20488;-71
2022/05/24 01:12:14;;;;;;;10.02;3.72;;;;;;;13.31;62.12;98317.03;8174170;29;20047;-72
2022/05/24 01:16:16;;;;;;;6.57;3.72;;;;;;;13.31;62.06;98314.31;8177668;29;20071;-72
2022/05/24 01:20:17;;;;;;;6.45;3.97;;;;;;;13.36;62.25;98314.06;8197089;28;20048;-71
2022/05/24 01:24:27;;;;;;;12.13;4.50;;;;;;;13.37;62.10;98311.03;8183294;28;20140;-73
2022/05/24 01:28:33;;;;;;;10.55;3.90;;;;;;;13.36;62.23;98300.50;8200244;28;20063;-72
2022/05/24 01:36:57;;;;;;;8.65;4.05;;;;;;;13.29;62.74;98281.31;8179850;29;20047;-71
2022/05/24 01:40:59;;;;;;;13.90;4.75;;;;;;;13.28;62.80;98252.63;8176325;28;20106;-72
2022/05/24 01:45:07;;;;;;;8.70;4.13;;;;;;;13.30;62.89;98239.53;8179531;28;20476;-71
2022/05/24 01:49:11;;;;;;;12.60;4.50;;;;;;;13.33;62.56;98244.25;8201094;28;20043;-72
2022/05/24 01:53:18;;;;;;;10.18;3.67;;;;;;;13.33;62.84;98227.97;8183144;28;20059;-73
2022/05/24 01:57:31;;;;;;;9.43;4.20;;;;;;;13.36;62.79;98211.03;8197732;28;20055;-72
2022/05/24 02:01:49;;;;;;;5.40;3.53;;;;;;;13.37;63.43;98231.59;8177086;28;20526;-75
2022/05/24 02:05:50;;;;;;;8.03;4.03;;;;;;;13.34;64.11;98267.50;8201261;28;20043;-72
2022/05/24 02:09:55;;;;;;;10.85;4.38;;;;;;;13.27;64.96;98261.94;8202010;28;20051;-73
2022/05/24 02:14:21;;;;;;;10.82;4.68;;;;;;;13.21;65.10;98252.47;8183007;29;20470;-72
2022/05/24 02:18:23;;;;;;;11.95;4.05;;;;;;;13.17;65.31;98256.97;8182810;28;20078;-73
2022/05/24 02:22:26;;;;;;;9.55;4.20;;;;;;;13.16;65.39;98266.25;8179325;28;20056;-72
2022/05/24 02:26:28;;;;;;;9.45;4.13;;;;;;;13.17;65.23;98256.97;8194600;28;20055;-72
2022/05/24 02:30:31;;;;;;;11.13;4.82;;;;;;;13.16;66.32;98245.38;8172422;29;20058;-72
2022/05/24 02:34:32;;;;;;;9.75;4.20;;;;;;;13.11;66.52;98238.25;8182650;28;20508;-73
2022/05/24 02:38:33;;;;;;;8.75;4.32;;;;;;;13.06;66.98;98246.59;8174581;29;20043;-73
2022/05/24 02:42:36;;;;;;;9.15;4.80;;;;;;;13.03;66.84;98247.31;8182792;29;20142;-72
2022/05/24 02:46:43;;;;;;;6.88;4.50;;;;;;;13.02;66.92;98251.13;8173649;28;20043;-72
2022/05/24 02:50:44;;;;;;;7.78;4.55;;;;;;;13.02;66.94;98253.84;8179203;28;20109;-72
2022/05/24 02:54:45;;;;;;;6.10;3.92;;;;;;;13.01;67.10;98244.13;8173913;28;20048;-73
2022/05/24 02:58:46;;;;;;;15.15;4.40;;;;;;;13.01;66.99;98236.00;8183727;28;20048;-72
2022/05/24 03:02:47;;;;;;;8.88;4.22;;;;;;;13.01;67.02;98233.28;8173463;29;20508;-72
2022/05/24 03:11:09;;;;;;;;;;;;;;;13.00;67.07;98234.44;8206586;28;20047;-72
2022/05/24 03:15:12;;;;;;;13.18;5.10;;;;;;;12.99;67.06;98230.16;8205466;28;19922;-73
2022/05/24 03:19:15;;;;;;;10.43;4.47;;;;;;;13.00;67.02;98234.44;8189883;28;20499;-73
2022/05/24 03:23:17;;;;;;;7.00;4.38;;;;;;;12.92;67.35;98235.38;8199927;28;20047;-72
2022/05/24 03:27:18;;;;;;;8.43;4.32;;;;;;;12.92;67.48;98224.53;8205899;28;20108;-72
2022/05/24 03:31:19;;;;;;;9.77;5.20;;;;;;;12.90;67.64;98226.78;8209002;28;20039;-72
2022/05/24 03:35:22;;;;;;;17.38;5.13;;;;;;;12.85;67.92;98224.31;8202927;28;20062;-71
2022/05/24 03:39:22;;;;;;;9.77;4.72;;;;;;;12.85;67.96;98224.31;8169981;29;20051;-73
2022/05/24 03:43:24;;;;;;;8.40;4.70;;;;;;;12.91;67.81;98222.94;8178226;28;20097;-71
2022/05/24 03:47:25;;;;;;;12.80;4.70;;;;;;;12.92;67.79;98202.84;8191814;28;20043;-72
2022/05/24 03:51:26;;;;;;;12.75;4.82;;;;;;;13.00;67.47;98193.78;8180489;28;20503;-72
2022/05/24 03:55:27;;;;;;;8.38;4.25;;;;;;;13.05;67.33;98196.25;8178984;28;20055;-72
2022/05/24 03:59:28;;;;;;;11.23;4.78;;;;;;;13.13;67.50;98196.47;8174234;28;20051;-71
2022/05/24 04:03:29;;;;;;;14.57;4.63;;;;;;;13.22;67.14;98199.81;8168897;28;20174;-72
2022/05/24 04:07:30;;;;;;;18.77;4.85;;;;;;;13.25;67.56;98220.78;8175689;28;20066;-72
2022/05/24 04:11:31;;;;;;;12.88;5.05;;;;;;;13.23;67.63;98217.63;8175689;29;20135;-72
2022/05/24 04:15:32;;;;;;;11.63;4.57;;;;;;;13.19;67.99;98233.03;8191346;28;20130;-73
2022/05/24 04:19:33;;;;;;;11.82;5.05;;;;;;;13.23;68.04;98223.84;8184297;29;20055;-72
2022/05/24 04:23:34;;;;;;;9.63;5.00;;;;;;;13.22;68.33;98232.34;8179423;28;20051;-71
2022/05/24 04:27:35;;;;;;;13.45;4.63;;;;;;;13.26;68.25;98233.22;8186029;29;20088;-72
2022/05/24 04:31:36;;;;;;;9.45;4.82;;;;;;;13.32;68.22;98239.97;8179214;29;20423;-72
2022/05/24 04:35:37;;;;;;;9.70;4.70;;;;;;;13.36;68.28;98243.56;8184927;28;20059;-73
2022/05/24 04:39:39;;;;;;;13.13;5.10;;;;;;;13.44;68.23;98239.88;8218169;28;20455;-72
2022/05/24 04:43:42;;;;;;;9.93;5.00;;;;;;;13.52;68.07;98236.25;8178025;29;20063;-72
2022/05/24 04:47:44;;;;;;;12.27;5.00;;;;;;;13.58;67.96;98245.69;8224846;28;20464;-73
2022/05/24 04:51:47;;;;;;;7.65;4.40;;;;;;;13.61;68.03;98234.13;8199953;28;20492;-72
2022/05/24 04:55:49;;;;;;;8.50;4.85;;;;;;;13.66;67.95;98225.75;8176680;28;20110;-72
2022/05/24 04:59:50;;;;;;;11.13;5.30;;;;;;;13.65;68.41;98229.59;8181247;28;20047;-71
2022/05/24 05:03:51;;;;;;;8.00;5.15;;;;;;;13.71;68.64;98228.19;8202344;28;20408;-73
2022/05/24 05:07:52;;;;;;;9.32;4.97;;;;;;;13.72;68.90;98229.78;8174361;29;20130;-73
2022/05/24 05:11:53;;;;;;;8.82;4.93;;;;;;;13.74;68.97;98216.66;8171546;29;20036;-72
2022/05/24 05:15:54;;;;;;;7.57;4.75;;;;;;;13.90;68.58;98236.44;8180358;29;20134;-72
2022/05/24 05:19:56;;;;;;;12.20;5.28;;;;;;;14.05;68.08;98231.31;8181747;29;20166;-72
2022/05/24 05:23:58;;;;;;;13.10;5.00;;;;;;;14.17;68.04;98242.09;8178979;28;20039;-72
2022/05/24 05:27:59;;;;;;;8.88;5.05;;;;;;;14.20;68.22;98233.22;8198703;28;20248;-72
2022/05/24 05:32:00;;;;;;;16.52;5.50;;;;;;;14.17;68.20;98240.13;8191414;28;20060;-74
2022/05/24 05:36:01;;;;;;;9.57;5.07;;;;;;;14.20;68.04;98238.66;8173788;29;20550;-72
2022/05/24 05:40:04;;;;;;;11.85;4.82;;;;;;;14.16;68.30;98237.81;8174760;28;20059;-72
2022/05/24 05:44:08;;;;;;;9.82;5.53;;;;;;;14.10;68.26;98239.19;8175402;29;20052;-72
2022/05/24 05:48:09;;;;;;;10.20;5.22;;;;;;;14.10;68.42;98233.78;8178509;28;20078;-71
2022/05/24 05:52:11;;;;;;;12.88;5.10;;;;;;;14.17;68.37;98244.81;8176963;29;20048;-73
2022/05/24 05:56:18;;;;;;;9.93;5.18;;;;;;;14.30;68.43;98243.53;8190643;29;20052;-72
2022/05/24 06:00:19;;;;;;;10.10;5.18;;;;;;;14.47;68.07;98237.75;8173867;28;20499;-72
2022/05/24 06:04:20;;;;;;;15.00;5.32;;;;;;;14.74;67.63;98242.22;8180233;29;20056;-73
2022/05/24 06:08:21;;;;;;;13.95;5.57;;;;;;;15.19;66.82;98251.66;8170873;29;20047;-72
2022/05/24 06:12:22;;;;;;;9.40;4.85;;;;;;;15.38;65.82;98246.22;8185895;28;20087;-72
2022/05/24 06:16:23;;;;;;;10.55;4.88;;;;;;;15.32;65.97;98261.25;8177860;29;20058;-73
2022/05/24 06:20:27;;;;;;;14.23;5.60;;;;;;;15.29;66.03;98256.50;8169957;28;20413;-72
2022/05/24 06:24:28;;;;;;;11.25;5.55;;;;;;;14.99;66.96;98247.38;8175962;29;20047;-72
2022/05/24 06:28:29;;;;;;;13.05;5.65;;;;;;;14.83;67.32;98265.69;8205783;28;20408;-72
2022/05/24 06:32:30;;;;;;;12.13;5.45;;;;;;;14.76;68.22;98256.22;8181525;28;20043;-72
2022/05/24 06:36:31;;;;;;;9.75;5.57;;;;;;;15.00;67.74;98254.41;8196395;28;20054;-74
2022/05/24 06:40:32;;;;;;;10.50;5.68;;;;;;;15.33;67.52;98267.47;8172607;29;20119;-72
2022/05/24 06:44:36;;;;;;;10.35;5.35;;;;;;;15.62;67.18;98270.38;8203425;28;20197;-72
2022/05/24 06:48:43;;;;;;;12.15;5.25;;;;;;;15.86;66.57;98276.63;8187027;28;20424;-72
2022/05/24 06:52:44;;;;;;;12.38;5.40;;;;;;;16.11;65.74;98275.09;8185963;28;20423;-72
2022/05/24 06:56:45;;;;;;;11.13;5.65;;;;;;;16.31;65.42;98273.84;8179971;28;20047;-73
2022/05/24 07:05:14;;;;;;;11.95;5.35;;;;;;;16.59;64.77;98283.63;8184224;28;20051;-72
2022/05/24 07:09:15;;;;;;;14.35;6.13;;;;;;;16.79;64.46;98261.31;8184982;28;20055;-71
2022/05/24 07:13:18;;;;;;;14.35;6.00;;;;;;;17.06;64.44;98281.16;8177368;28;20047;-72
2022/05/24 07:17:20;;;;;;;9.95;5.63;;;;;;;17.30;63.36;98290.78;8203011;28;20102;-72
2022/05/24 07:21:21;;;;;;;9.00;5.47;;;;;;;17.52;63.47;98291.81;8191283;28;20071;-74
2022/05/24 07:25:22;;;;;;;9.40;4.93;;;;;;;17.65;63.60;98290.44;8184251;28;20098;-72
2022/05/24 07:29:24;;;;;;;10.52;5.68;;;;;;;17.93;63.04;98300.81;8178164;29;20083;-72
2022/05/24 07:33:24;;;;;;;9.93;5.47;;;;;;;18.18;62.88;98290.13;8184279;28;20419;-73
2022/05/24 07:37:26;;;;;;;12.10;5.78;;;;;;;18.53;62.16;98282.97;8194375;28;20055;-72
2022/05/24 07:49:47;;;;;;;19.25;5.18;;;;;;;19.15;60.20;98293.06;8203361;29;20427;-72
2022/05/24 07:53:48;;;;;;;11.65;5.20;;;;;;;19.30;60.19;98300.94;8205873;28;20054;-73
2022/05/24 07:57:49;;;;;;;14.50;5.47;;;;;;;19.39;60.14;98289.66;8203900;28;20048;-74
2022/05/24 08:01:50;;;;;;;9.82;5.15;;;;;;;19.72;60.35;98289.38;8204364;28;20511;-72
2022/05/24 08:05:51;;;;;;;10.43;5.30;;;;;;;20.06;59.71;98291.75;8204893;28;20047;-72
2022/05/24 08:09:52;;;;;;;11.82;5.32;;;;;;;20.13;59.03;98287.06;8204835;28;20043;-74
2022/05/24 08:13:53;;;;;;;11.45;5.20;;;;;;;20.27;59.11;98289.03;8205320;28;20043;-70
2022/05/24 08:17:54;;;;;;;12.85;5.63;;;;;;;20.42;59.14;98287.84;8204849;28;20085;-71
2022/05/24 08:21:55;;;;;;;9.73;4.85;;;;;;;20.54;58.98;98289.41;8204986;28;20055;-72
2022/05/24 08:25:57;;;;;;;14.23;5.38;;;;;;;20.71;58.00;98304.28;8204825;28;20051;-72
2022/05/24 08:29:59;;;;;;;17.75;5.22;;;;;;;20.95;56.77;98308.94;8203953;28;20055;-72
2022/05/24 08:34:00;;;;;;;9.95;4.40;;;;;;;21.10;56.96;98293.22;8201223;28;20193;-73
2022/05/24 08:38:03;;;;;;;10.23;4.63;;;;;;;21.24;56.40;98293.97;8201959;28;20051;-74
2022/05/24 08:42:32;;;;;;;8.10;4.07;;;;;;;21.32;55.44;98290.00;8203548;28;20063;-72
2022/05/24 08:51:18;;;;;;;12.50;4.22;;;;;;;21.59;55.86;98303.19;8168438;29;20303;-73
2022/05/24 08:55:19;;;;;;;12.45;3.90;;;;;;;21.66;55.94;98308.66;8167727;29;20587;-72
2022/05/24 08:59:21;;;;;;;5.82;3.72;;;;;;;21.74;55.10;98310.19;8168224;29;20055;-74
2022/05/24 09:03:25;;;;;;;7.03;3.70;;;;;;;22.06;55.63;98310.00;8168360;29;20055;-71
2022/05/24 09:07:44;;;;;;;12.60;4.05;;;;;;;22.09;55.23;98310.00;8167831;29;20491;-73
2022/05/24 09:11:50;;;;;;;;;;;;;;;21.88;55.52;98310.09;8168213;29;20047;-73
2022/05/24 09:16:08;;;;;;;16.23;5.15;;;;;;;21.77;55.07;98309.38;8150384;29;20425;-74
2022/05/24 09:20:13;;;;;;;10.55;4.63;;;;;;;21.78;56.30;98306.22;8146552;29;20050;-73
2022/05/24 09:24:31;;;;;;;7.10;4.25;;;;;;;21.91;56.21;98298.28;8167291;28;20490;-73
2022/05/24 09:28:51;;;;;;;7.90;3.85;;;;;;;21.96;55.54;98306.16;8202992;28;20170;-73
2022/05/24 09:32:53;;;;;;;7.97;3.72;;;;;;;22.24;55.07;98300.44;8201742;28;20055;-73
2022/05/24 09:37:02;;;;;;;8.90;3.03;;;;;;;22.40;55.52;98312.88;8201237;28;20446;-73
2022/05/24 09:41:22;;;;;;;6.05;2.78;;;;;;;22.69;54.34;98319.69;8201345;28;20059;-74
2022/05/24 09:45:28;;;;;;;5.03;2.50;;;;;;;22.16;56.22;98331.91;8202179;28;20047;-73
2022/05/24 09:49:35;;;;;;;6.40;2.50;;;;;;;21.74;56.90;98332.16;8200748;29;20118;-73
2022/05/24 09:53:48;;;;;;;12.98;2.90;;;;;;;21.38;57.75;98331.56;8202296;28;20072;-73
2022/05/24 09:57:49;;;;;;;5.15;2.38;;;;;;;21.25;58.71;98333.97;8200708;29;20047;-73
2022/05/24 10:01:50;;;;;;;7.68;2.60;;;;;;;21.35;58.63;98335.91;8199427;29;20070;-73
2022/05/24 10:06:28;;;;;;;5.32;2.20;;;;;;;21.75;58.18;98351.00;8198347;28;20055;-73
2022/05/24 10:10:38;;;;;;;4.07;1.95;;;;;;;22.14;57.07;98339.81;8166314;29;20071;-74
2022/05/24 10:15:07;;;;;;;7.18;1.90;;;;;;;22.48;57.16;98342.66;8151616;29;20496;-73
2022/05/24 10:19:29;;;;;;;9.38;2.63;;;;;;;22.64;55.10;98342.91;8011192;29;20070;-73
2022/05/24 10:23:40;;;;;;;4.75;2.40;;;;;;;22.68;55.82;98351.16;8010911;29;20451;-73
2022/05/24 10:28:08;;;;;;;8.20;2.50;;;;;;;22.40;55.68;98356.91;8010354;29;20174;-72
2022/05/24 10:41:49;;;;;;;6.53;2.25;;;;;;;22.89;54.58;98361.22;8009977;29;20054;-73
2022/05/24 10:46:03;;;;;;;7.07;2.37;;;;;;;23.42;54.00;98341.34;8020529;29;20058;-72
2022/05/24 10:50:10;;;;;;;5.18;2.75;;;;;;;23.79;51.48;98341.28;8040836;29;20294;-74
2022/05/24 10:54:12;;;;;;;6.00;2.90;;;;;;;24.23;51.60;98347.75;8052910;29;20056;-73
2022/05/24 10:58:15;;;;;;;5.93;2.70;;;;;;;24.37;51.07;98348.31;8167614;29;20055;-74
2022/05/24 11:02:51;;;;;;;7.78;2.67;;;;;;;24.07;50.86;98355.84;8168672;29;20048;-73
2022/05/24 11:07:00;;;;;;;6.07;2.95;;;;;;;23.59;51.73;98359.66;8196068;29;20047;-73
2022/05/24 11:11:22;;;;;;;11.30;3.28;;;;;;;23.44;52.96;98358.25;8196307;29;20519;-74
2022/05/24 11:15:33;;;;;;;7.13;3.17;;;;;;;23.22;53.48;98359.66;8196327;28;20447;-73
2022/05/24 11:19:39;;;;;;;6.68;3.03;;;;;;;23.19;54.67;98357.75;8180506;28;20083;-73
2022/05/24 11:23:48;;;;;;;9.77;3.60;;;;;;;23.05;54.02;98364.97;8180523;28;20635;-72
2022/05/24 11:28:08;;;;;;;10.63;3.35;;;;;;;22.90;54.66;98363.53;8179674;29;20055;-73
2022/05/24 11:32:11;;;;;;;8.88;3.30;;;;;;;22.77;55.27;98370.75;8148066;29;20076;-73
2022/05/24 11:36:33;;;;;;;9.98;2.80;;;;;;;22.91;55.99;98359.59;8195515;28;20495;-73
2022/05/24 11:40:39;;;;;;;11.02;3.35;;;;;;;23.15;55.54;98364.09;8180675;28;20065;-73
2022/05/24 11:44:40;;;;;;;9.48;2.97;;;;;;;23.38;54.36;98359.88;8199456;28;20427;-73
2022/05/24 11:48:48;;;;;;;8.25;3.22;;;;;;;23.73;52.36;98337.44;8199256;28;20051;-73
2022/05/24 11:53:27;;;;;;;7.17;2.87;;;;;;;24.52;52.27;98343.34;8199259;28;20078;-74
2022/05/24 11:57:39;;;;;;;7.00;2.78;;;;;;;25.07;49.73;98344.75;8132563;29;20123;-73
2022/05/24 12:01:43;;;;;;;6.97;2.80;;;;;;;25.44;48.65;98341.66;8131791;29;20063;-72
2022/05/24 12:10:42;;;;;;;8.52;2.60;;;;;;;26.25;47.48;98347.44;8131798;29;20044;-74
2022/05/24 12:14:44;;;;;;;7.80;3.38;;;;;;;26.69;47.83;98345.19;8131713;29;20489;-73
2022/05/24 12:18:59;;;;;;;7.25;3.92;;;;;;;26.91;46.87;98346.22;8131859;29;20056;-74
2022/05/24 12:23:15;;;;;;;27.80;4.07;;;;;;;26.64;46.77;98348.47;8100664;29;20601;-73
2022/05/24 12:27:45;;;;;;;10.50;3.33;;;;;;;26.81;46.78;98358.31;8100331;29;20060;-73
2022/05/24 12:31:47;;;;;;;8.70;3.80;;;;;;;26.21;46.42;98343.94;8157991;29;20048;-73
2022/05/24 12:36:06;;;;;;;8.43;3.70;;;;;;;25.82;47.52;98344.03;8191106;29;20602;-74
2022/05/24 12:40:34;;;;;;;5.00;3.05;;;;;;;25.67;47.99;98337.28;8204176;28;20058;-74
2022/05/24 12:44:47;;;;;;;11.80;3.92;;;;;;;26.00;46.48;98328.63;8136254;29;20052;-73
2022/05/24 12:48:58;;;;;;;6.43;3.10;;;;;;;25.85;47.39;98332.94;8135549;29;20064;-73
2022/05/24 12:53:03;;;;;;;8.82;3.15;;;;;;;25.72;48.05;98334.00;8074524;29;20485;-74
2022/05/24 12:57:05;;;;;;;5.57;3.17;;;;;;;25.89;47.56;98325.31;8105367;29;20056;-74
2022/05/24 13:01:28;;;;;;;26.20;3.25;;;;;;;25.61;48.13;98329.47;8105224;29;20191;-73
2022/05/24 13:05:38;;;;;;;7.90;2.92;;;;;;;25.51;48.62;98330.47;8118904;29;20119;-73
2022/05/24 13:09:43;;;;;;;9.52;2.75;;;;;;;25.46;50.31;98327.41;8136961;29;20116;-74
2022/05/24 13:13:44;;;;;;;12.23;2.90;;;;;;;25.75;50.42;98330.41;8137159;29;20063;-74
2022/05/24 13:17:47;;;;;;;8.82;2.60;;;;;;;26.33;48.36;98323.91;8119762;29;20076;-74
2022/05/24 13:21:55;;;;;;;5.95;2.30;;;;;;;26.35;48.55;98327.03;8184543;29;20434;-74
2022/05/24 13:26:01;;;;;;;7.68;2.67;;;;;;;26.01;49.11;98323.88;8199041;29;20071;-74
2022/05/24 13:34:31;;;;;;;11.93;3.60;;;;;;;25.75;49.77;98327.63;8167387;29;20054;-73
2022/05/24 13:38:34;;;;;;;6.85;3.13;;;;;;;26.03;49.33;98324.19;8202377;28;20599;-74
2022/05/24 13:42:35;;;;;;;12.73;3.85;;;;;;;27.10;46.93;98336.97;8215565;28;20051;-74
2022/05/24 13:47:05;;;;;;;7.10;2.35;;;;;;;27.31;45.70;98341.94;8215854;28;20150;-73
2022/05/24 13:51:06;;;;;;;6.10;2.78;;;;;;;26.28;48.45;98332.72;8201519;28;20043;-73
2022/05/24 13:55:15;;;;;;;6.30;2.38;;;;;;;25.85;49.40;98343.22;8202129;28;20460;-73
2022/05/24 13:59:21;;;;;;;5.03;2.17;;;;;;;25.58;49.57;98335.88;8201545;28;20055;-73
2022/05/24 14:03:33;;;;;;;5.53;1.85;;;;;;;25.40;49.48;98362.28;8201322;28;20484;-73
2022/05/24 14:07:33;;;;;;;6.57;2.28;;;;;;;25.08;48.37;98360.13;8200762;28;20055;-73
2022/05/24 14:11:47;;;;;;;11.23;2.17;;;;;;;24.79;47.32;98368.91;8201289;28;20055;-73
2022/05/24 14:15:48;;;;;;;8.48;2.45;;;;;;;24.52;48.22;98365.44;8169687;29;20056;-73
2022/05/24 14:19:50;;;;;;;7.07;2.70;;;;;;;24.34;48.60;98364.94;8167774;29;20055;-74
2022/05/24 14:23:53;;;;;;;5.70;2.33;;;;;;;24.22;48.95;98379.28;8191686;28;20050;-73
2022/05/24 14:27:55;;;;;;;7.38;2.58;;;;;;;23.94;52.03;98381.25;8151629;28;20059;-74
2022/05/24 14:31:56;;;;;;;9.13;3.03;;;;;;;23.45;54.88;98392.88;8200955;28;20062;-72
2022/05/24 14:35:57;;;;;;;7.68;2.70;;;;;;;23.34;56.07;98392.22;8200866;28;20419;-72
2022/05/24 14:39:58;;;;;;;7.72;2.72;;;;;;;23.26;56.55;98407.25;8199167;28;20063;-72
2022/05/24 14:44:05;;;;;;;4.15;2.47;;;;;;;23.23;56.49;98408.06;8199500;29;20503;-73
2022/05/24 14:48:07;;;;;;;5.88;2.83;;;;;;;23.20;56.51;98419.91;8201971;28;20054;-74
2022/05/24 14:52:10;;;;;;;4.60;2.15;;;;;;;22.89;57.19;98414.31;8196947;28;20626;-71
2022/05/24 14:56:11;;;;;;;3.92;2.17;;;;;;;22.64;57.89;98421.94;8198027;28;20416;-72
2022/05/24 15:00:13;;;;;;;6.63;1.95;;;;;;;22.42;58.91;98424.06;8193942;28;20126;-72
2022/05/24 15:04:16;;;;;;;5.63;2.03;;;;;;;22.25;59.75;98431.28;8172390;28;20504;-73
2022/05/24 15:16:58;;;;;;;9.65;2.30;;;;;;;21.05;66.46;98450.84;8229876;28;20054;-72
2022/05/24 15:21:00;;;;;;;7.10;2.50;;;;;;;20.72;68.14;98459.50;8217625;28;20503;-72
2022/05/24 15:25:04;;;;;;;13.00;3.28;;;;;;;20.35;70.96;98455.16;8206779;28;20054;-72
2022/05/24 15:29:06;;;;;;;10.40;3.15;;;;;;;20.08;75.82;98501.25;8213893;28;20514;-73
2022/05/24 15:33:07;;;;;;;14.05;4.60;;;;;;;19.37;81.28;98533.72;8182655;29;20043;-72
2022/05/24 15:37:08;;;;;;;13.23;4.13;;;;;;;18.91;83.78;98511.47;8206450;28;20062;-72
2022/05/24 15:41:10;;;;;;;13.63;4.47;;;;;;;18.62;85.48;98515.09;8187896;28;20539;-71
2022/05/24 15:45:14;;;;;;;15.85;4.72;;;;;;;18.47;87.61;98516.06;8171517;28;20050;-72
2022/05/24 15:49:16;;;;;;;13.05;4.80;;;;;;;18.42;88.48;98508.22;8199340;28;20056;-72
2022/05/24 15:53:16;;;;;;;12.85;4.32;;;;;;;18.30;88.95;98512.00;8199671;28;20051;-72
2022/05/24 15:57:18;;;;;;;11.07;3.65;;;;;;;18.37;88.50;98516.75;8198669;28;20063;-72
2022/05/24 16:01:19;;;;;;;12.05;3.30;;;;;;;18.29;88.20;98531.50;8203071;28;20059;-72
2022/05/24 16:14:05;;;;;;;11.15;2.95;;;;;;;18.19;85.81;98538.41;8189764;28;20059;-72
2022/05/24 16:18:08;;;;;;;7.20;2.53;;;;;;;18.20;85.47;98522.81;8204823;28;20043;-72
2022/05/24 16:22:10;;;;;;;10.25;2.72;;;;;;;18.09;87.04;98526.19;8224026;28;20061;-72
2022/05/24 16:26:11;;;;;;;5.25;3.00;;;;;;;18.07;87.26;98534.00;8212345;28;20053;-73
2022/05/24 16:30:13;;;;;;;7.40;3.13;;;;;;;18.13;86.41;98529.78;8205870;28;20076;-72
2022/05/24 16:34:14;;;;;;;9.00;3.55;;;;;;;18.21;86.59;98530.63;8203079;28;20051;-73
2022/05/24 16:38:16;;;;;;;9.93;3.70;;;;;;;18.11;88.22;98543.00;8217024;28;20077;-72
2022/05/24 16:42:19;;;;;;;9.13;3.95;;;;;;;18.02;88.74;98545.25;8219138;28;20051;-73
2022/05/24 16:46:21;;;;;;;9.63;3.92;;;;;;;18.01;88.07;98549.13;8202560;28;20075;-73
2022/05/24 16:50:22;;;;;;;8.80;3.08;;;;;;;18.03;87.37;98552.28;8223868;28;20051;-73
2022/05/24 16:58:42;;;;;;;6.93;2.95;;;;;;;18.15;86.00;98560.22;8201450;28;20138;-74
2022/05/24 17:03:00;;;;;;;8.55;2.95;;;;;;;18.05;86.24;98568.28;8206142;28;20541;-73
2022/05/24 17:07:04;;;;;;;10.77;3.33;;;;;;;18.04;86.24;98574.91;8215922;28;20051;-72
2022/05/24 17:11:08;;;;;;;10.30;3.38;;;;;;;18.08;85.87;98576.53;8212870;28;20051;-72
2022/05/24 17:15:12;;;;;;;9.23;4.22;;;;;;;18.10;86.02;98574.22;8203868;28;20055;-73
2022/05/24 17:19:16;;;;;;;16.08;4.40;;;;;;;18.05;86.68;98577.28;8184255;29;20488;-73
2022/05/24 17:23:18;;;;;;;9.23;5.55;;;;;;;18.03;86.87;98585.06;8199855;28;20146;-72
2022/05/24 17:27:20;;;;;;;13.30;7.28;;;;;;;18.00;86.79;98596.75;8202029;28;20507;-73
2022/05/24 17:31:22;;;;;;;10.88;4.13;;;;;;;17.89;87.44;98595.78;8199868;28;20566;-74
2022/05/24 17:35:25;;;;;;;8.45;4.45;;;;;;;17.90;87.06;98589.19;8201760;28;20047;-72
2022/05/24 17:39:27;;;;;;;5.90;3.97;;;;;;;17.92;86.90;98595.06;8200561;28;20051;-72
2022/05/24 17:43:31;;;;;;;11.98;5.63;;;;;;;17.94;86.92;98598.22;8198398;29;20086;-73
2022/05/24 17:47:34;;;;;;;6.15;3.35;;;;;;;17.90;86.90;98602.84;8198215;28;20047;-72
2022/05/24 17:51:36;;;;;;;7.30;3.97;;;;;;;17.90;86.73;98597.38;8212411;28;20587;-73
2022/05/24 17:55:37;;;;;;;5.18;3.92;;;;;;;17.87;87.28;98613.72;8200763;28;20051;-73
2022/05/24 17:59:38;;;;;;;7.15;4.50;;;;;;;17.86;86.93;98618.41;8199421;28;20135;-72
2022/05/24 18:03:39;;;;;;;8.55;4.10;;;;;;;17.81;87.01;98624.19;8216446;28;20050;-73
2022/05/24 18:07:43;;;;;;;5.50;3.35;;;;;;;17.79;87.08;98629.22;8221045;28;20066;-74
2022/05/24 18:11:44;;;;;;;6.32;3.80;;;;;;;17.77;87.34;98626.06;8200529;28;20496;-72
2022/05/24 18:15:45;;;;;;;7.30;4.63;;;;;;;17.73;87.24;98647.84;8214778;28;20205;-73
2022/05/24 18:19:46;;;;;;;7.22;4.40;;;;;;;17.69;87.34;98657.16;8216104;28;20062;-73
2022/05/24 18:24:02;;;;;;;10.40;5.25;;;;;;;17.59;88.07;98652.28;8198805;28;20070;-73
2022/05/24 18:36:46;;;;;;;6.75;4.30;;;;;;;17.44;88.88;98662.19;8207306;28;20081;-72
2022/05/24 18:40:48;;;;;;;7.22;4.30;;;;;;;17.44;89.01;98661.38;8232111;28;20507;-71
2022/05/24 18:44:49;;;;;;;6.28;4.82;;;;;;;17.42;89.24;98658.22;8232150;28;20105;-71
2022/05/24 18:48:50;;;;;;;12.35;5.90;;;;;;;17.38;89.06;98668.31;8231801;28;20193;-73
2022/05/24 18:52:51;;;;;;;20.77;6.75;;;;;;;17.36;89.11;98676.84;8245997;28;20058;-73
2022/05/24 18:56:53;;;;;;;10.48;6.18;;;;;;;17.30;89.58;98684.53;8216953;28;20102;-72
2022/05/24 19:00:54;;;;;;;10.57;6.60;;;;;;;17.26;89.46;98689.16;8198973;28;20066;-72
2022/05/24 19:04:55;;;;;;;12.18;6.10;;;;;;;17.22;89.49;98693.78;8172262;28;20059;-72
2022/05/24 19:08:59;;;;;;;12.13;8.50;;;;;;;17.18;89.94;98690.16;8209815;28;20138;-72
2022/05/24 19:13:00;;;;;;;13.98;9.10;;;;;;;17.08;90.75;98693.50;8195935;28;20047;-72
2022/05/24 19:17:03;;;;;;;16.27;8.40;;;;;;;17.08;90.57;98704.41;8224686;28;20128;-73
2022/05/24 19:21:04;;;;;;;11.85;7.35;;;;;;;17.01;91.63;98704.28;8203386;28;20082;-73
2022/05/24 19:25:08;;;;;;;10.80;7.05;;;;;;;17.00;91.59;98702.69;8204389;28;20049;-73
2022/05/24 19:29:10;;;;;;;13.05;8.07;;;;;;;16.95;91.90;98700.25;8209525;28;20054;-73
2022/05/24 19:33:13;;;;;;;15.38;8.75;;;;;;;16.92;92.08;98700.97;8194706;28;20059;-72
2022/05/24 19:37:18;;;;;;;21.08;11.60;;;;;;;16.88;93.00;98711.03;8190620;28;20058;-72
2022/05/24 19:45:49;;;;;;;15.18;8.75;;;;;;;16.84;92.71;98721.09;8193550;28;20499;-72
2022/05/24 19:49:50;;;;;;;31.05;19.80;;;;;;;16.75;93.49;98728.69;8186100;29;20805;-73
2022/05/24 19:53:52;;;;;;;19.13;12.02;;;;;;;16.69;93.73;98730.13;8125807;29;20519;-72
2022/05/24 19:57:55;;;;;;;16.67;10.18;;;;;;;16.68;93.63;98728.53;8190928;28;20051;-72
2022/05/24 20:02:18;;;;;;;20.60;12.15;;;;;;;16.64;93.57;98746.75;8209700;28;20044;-73
2022/05/24 20:06:24;;;;;;;18.88;13.48;;;;;;;16.55;94.35;98752.38;8121724;29;20155;-72
2022/05/24 20:10:25;;;;;;;18.27;15.40;;;;;;;16.47;95.61;98751.44;8081793;29;20076;-71
2022/05/24 20:14:31;;;;;;;18.58;11.73;;;;;;;16.41;95.91;98761.03;8117496;29;20135;-72
2022/05/24 20:18:36;;;;;;;15.00;10.43;;;;;;;16.34;96.87;98774.50;8117518;29;20134;-73
2022/05/24 20:22:37;;;;;;;14.27;10.57;;;;;;;16.36;96.24;98761.31;8114807;29;20056;-73
2022/05/24 20:26:39;;;;;;;16.48;8.98;;;;;;;16.32;96.52;98749.53;8126277;29;20051;-72
2022/05/24 20:31:01;;;;;;;12.20;8.23;;;;;;;16.34;96.41;98758.13;8127071;29;20128;-73